Time;durP1;ratioP1;P1;durP2;ratioP2;P2;SDS_P1;SDS_P2;PMS_P1;PMS_P2;Temp;Humidity;BMP_temperature;BMP_pressure;BME280_temperature;BME280_humidity;BME280_pressure;Samples;Min_cycle;Max_cycle;Signal;HPM_P1;HPM_P2
2022/07/01 00:00:51;;;;;;;9.75;8.80;;;;;;;;;;5020541;28;20210;-81
2022/07/01 00:03:17;;;;;;;10.10;8.52;;;;;;;;;;5020191;28;20210;-82
2022/07/01 00:05:43;;;;;;;9.70;8.70;;;;;;;;;;5002522;28;20183;-82
2022/07/01 00:08:09;;;;;;;9.95;8.68;;;;;;;;;;5002005;28;20187;-83
2022/07/01 00:10:37;;;;;;;10.27;9.13;;;;;;;;;;5003393;28;20198;-82
2022/07/01 00:13:03;;;;;;;9.85;8.85;;;;;;;;;;5021672;28;20202;-82
2022/07/01 00:15:29;;;;;;;10.77;9.45;;;;;;;;;;5006398;28;20692;-82
2022/07/01 00:17:55;;;;;;;12.23;9.30;;;;;;;;;;5006852;28;20265;-82
2022/07/01 00:20:21;;;;;;;12.45;9.45;;;;;;;;;;5005745;28;20205;-82
2022/07/01 00:22:47;;;;;;;10.13;9.13;;;;;;;;;;5003203;28;20184;-82
2022/07/01 00:25:13;;;;;;;9.77;8.77;;;;;;;;;;5003421;28;20187;-82
2022/07/01 00:27:40;;;;;;;10.43;7.82;;;;;;;;;;5002518;28;20183;-82
2022/07/01 00:30:06;;;;;;;8.90;7.90;;;;;;;;;;5005632;28;20210;-81
2022/07/01 00:32:32;;;;;;;8.65;7.90;;;;;;;;;;5004833;28;20214;-81
2022/07/01 00:34:58;;;;;;;8.48;7.30;;;;;;;;;;5004693;28;20174;-82
2022/07/01 00:37:24;;;;;;;10.00;7.15;;;;;;;;;;5023298;28;20719;-82
2022/07/01 00:39:50;;;;;;;8.45;6.40;;;;;;;;;;5005055;28;20202;-83
2022/07/01 00:42:16;;;;;;;7.05;6.32;;;;;;;;;;5007537;28;20187;-82
2022/07/01 00:44:42;;;;;;;7.05;6.00;;;;;;;;;;5023677;28;20213;-83
2022/07/01 00:47:10;;;;;;;9.55;5.65;;;;;;;;;;5004511;28;20222;-84
2022/07/01 00:49:36;;;;;;;5.78;5.18;;;;;;;;;;5004664;28;20586;-81
2022/07/01 00:52:02;;;;;;;8.65;5.50;;;;;;;;;;5021178;28;20669;-83
2022/07/01 00:54:29;;;;;;;5.60;5.10;;;;;;;;;;5003597;28;20286;-82
2022/07/01 00:56:56;;;;;;;6.00;5.45;;;;;;;;;;5023348;28;20534;-84
2022/07/01 00:59:22;;;;;;;5.53;4.80;;;;;;;;;;5004404;28;20222;-82
2022/07/01 01:01:48;;;;;;;6.30;4.78;;;;;;;;;;4999503;28;20183;-81
2022/07/01 01:04:14;;;;;;;5.47;4.60;;;;;;;;;;5005565;28;20184;-82
2022/07/01 01:06:40;;;;;;;5.15;4.63;;;;;;;;;;5002225;28;20165;-83
2022/07/01 01:09:06;;;;;;;5.40;4.90;;;;;;;;;;5002977;28;20720;-84
2022/07/01 01:11:33;;;;;;;6.97;4.85;;;;;;;;;;5003251;28;20294;-82
2022/07/01 01:13:59;;;;;;;6.72;4.60;;;;;;;;;;5004526;28;20309;-84
2022/07/01 01:16:25;;;;;;;5.90;4.90;;;;;;;;;;5003761;28;20218;-82
2022/07/01 01:18:52;;;;;;;4.68;4.28;;;;;;;;;;5003932;28;20193;-83
2022/07/01 01:21:18;;;;;;;5.65;5.00;;;;;;;;;;5003144;28;20748;-82
2022/07/01 01:23:44;;;;;;;6.00;4.85;;;;;;;;;;5004122;28;20196;-82
2022/07/01 01:26:21;;;;;;;5.50;4.97;;;;;;;;;;5021189;28;20662;-85
2022/07/01 01:28:47;;;;;;;5.90;5.05;;;;;;;;;;5019764;28;20257;-83
2022/07/01 01:31:13;;;;;;;4.95;4.45;;;;;;;;;;5000389;28;20262;-84
2022/07/01 01:33:39;;;;;;;5.22;4.53;;;;;;;;;;5001018;28;20214;-83
2022/07/01 01:36:06;;;;;;;5.38;4.70;;;;;;;;;;5000802;28;20195;-83
2022/07/01 01:38:32;;;;;;;5.15;4.65;;;;;;;;;;5001151;28;20180;-83
2022/07/01 01:40:58;;;;;;;7.10;4.65;;;;;;;;;;5017334;28;20226;-83
2022/07/01 01:43:24;;;;;;;5.18;4.68;;;;;;;;;;5017788;28;20192;-82
2022/07/01 01:45:50;;;;;;;5.03;4.35;;;;;;;;;;5000768;28;20183;-83
2022/07/01 01:48:16;;;;;;;6.18;4.85;;;;;;;;;;5016842;28;20246;-83
2022/07/01 01:50:42;;;;;;;5.78;4.72;;;;;;;;;;5001386;28;20215;-82
2022/07/01 01:53:08;;;;;;;7.82;5.25;;;;;;;;;;4999328;28;20216;-83
2022/07/01 01:55:34;;;;;;;5.90;5.30;;;;;;;;;;5001490;28;20763;-82
2022/07/01 01:58:00;;;;;;;5.93;5.32;;;;;;;;;;5001209;28;20623;-82
2022/07/01 02:00:26;;;;;;;6.38;5.13;;;;;;;;;;4999155;28;20199;-82
2022/07/01 02:02:52;;;;;;;6.53;5.63;;;;;;;;;;4999135;28;20190;-82
2022/07/01 02:05:18;;;;;;;8.00;6.82;;;;;;;;;;5000445;28;20255;-82
2022/07/01 02:07:44;;;;;;;7.82;7.13;;;;;;;;;;5016397;28;20218;-81
2022/07/01 02:10:10;;;;;;;9.80;8.35;;;;;;;;;;5017404;28;20215;-83
2022/07/01 02:12:37;;;;;;;9.48;8.15;;;;;;;;;;4999756;28;20207;-83
2022/07/01 02:15:03;;;;;;;10.98;9.80;;;;;;;;;;4999188;28;20194;-82
2022/07/01 02:17:29;;;;;;;12.50;11.32;;;;;;;;;;5016676;28;20334;-83
2022/07/01 02:19:55;;;;;;;15.18;13.57;;;;;;;;;;4998282;28;20803;-83
2022/07/01 02:22:21;;;;;;;13.45;12.05;;;;;;;;;;4999786;28;20270;-83
2022/07/01 02:24:47;;;;;;;14.60;13.02;;;;;;;;;;4998181;28;20286;-82
2022/07/01 02:27:13;;;;;;;14.13;12.63;;;;;;;;;;5017644;28;20187;-82
2022/07/01 02:29:40;;;;;;;12.55;11.35;;;;;;;;;;4998382;28;20202;-82
2022/07/01 02:32:07;;;;;;;14.27;12.77;;;;;;;;;;4998172;28;20293;-82
2022/07/01 02:34:33;;;;;;;13.13;11.82;;;;;;;;;;5000064;28;20171;-83
2022/07/01 02:36:59;;;;;;;14.68;13.15;;;;;;;;;;4998995;28;20234;-82
2022/07/01 02:39:25;;;;;;;16.30;14.65;;;;;;;;;;4997337;28;20321;-82
2022/07/01 02:44:35;;;;;;;14.82;13.23;;;;;;;;;;5017226;28;20306;-82
2022/07/01 02:47:01;;;;;;;16.73;14.98;;;;;;;;;;4999577;28;20668;-82
2022/07/01 02:49:27;;;;;;;17.83;15.13;;;;;;;;;;5015747;28;20234;-82
2022/07/01 02:51:53;;;;;;;19.50;15.70;;;;;;;;;;4998453;28;20187;-83
2022/07/01 02:54:19;;;;;;;16.60;14.70;;;;;;;;;;4998072;28;20187;-82
2022/07/01 02:56:45;;;;;;;16.85;13.93;;;;;;;;;;5015235;28;20186;-82
2022/07/01 02:59:11;;;;;;;13.93;12.40;;;;;;;;;;4998270;28;20198;-83
2022/07/01 03:01:37;;;;;;;13.68;12.02;;;;;;;;;;5017717;28;20179;-82
2022/07/01 03:04:03;;;;;;;13.75;12.02;;;;;;;;;;4998617;28;20289;-82
2022/07/01 03:06:29;;;;;;;14.30;11.38;;;;;;;;;;4999346;28;20191;-82
2022/07/01 03:08:55;;;;;;;15.25;12.65;;;;;;;;;;5015398;28;20187;-82
2022/07/01 03:11:21;;;;;;;12.20;10.90;;;;;;;;;;4999870;28;20209;-82
2022/07/01 03:13:47;;;;;;;12.35;11.10;;;;;;;;;;4997044;28;20319;-82
2022/07/01 03:16:14;;;;;;;13.50;11.68;;;;;;;;;;4998726;28;20205;-83
2022/07/01 03:18:40;;;;;;;12.82;11.52;;;;;;;;;;4998049;28;20204;-83
2022/07/01 03:21:06;;;;;;;12.05;10.93;;;;;;;;;;5015767;28;20231;-82
2022/07/01 03:23:32;;;;;;;11.63;10.52;;;;;;;;;;5016706;28;20187;-82
2022/07/01 03:25:58;;;;;;;12.70;11.50;;;;;;;;;;4998583;28;20183;-83
2022/07/01 03:28:24;;;;;;;12.57;11.27;;;;;;;;;;4997993;28;20811;-82
2022/07/01 03:30:50;;;;;;;11.95;10.82;;;;;;;;;;5015861;28;20867;-79
2022/07/01 03:33:16;;;;;;;10.60;9.52;;;;;;;;;;4998439;28;20299;-80
2022/07/01 03:35:45;;;;;;;10.13;9.07;;;;;;;;;;5013760;28;20278;-79
2022/07/01 03:38:12;;;;;;;8.48;7.68;;;;;;;;;;4996180;28;20183;-80
2022/07/01 03:40:38;;;;;;;8.13;7.40;;;;;;;;;;4997707;28;20214;-81
2022/07/01 03:43:05;;;;;;;8.32;7.43;;;;;;;;;;5013297;28;20202;-79
2022/07/01 03:45:31;;;;;;;7.45;6.72;;;;;;;;;;4996654;28;20299;-79
2022/07/01 03:47:57;;;;;;;6.40;5.72;;;;;;;;;;5016280;28;20190;-82
2022/07/01 03:50:24;;;;;;;6.32;5.50;;;;;;;;;;5016899;28;20245;-82
2022/07/01 03:54:29;;;;;;;5.20;4.68;;;;;;;;;;5017663;28;20207;-80
2022/07/01 03:55:36;;;;;;;4.00;3.60;;;;;;;;;;5015889;28;20193;-79
2022/07/01 03:58:03;;;;;;;3.95;3.30;;;;;;;;;;4998527;28;20209;-79
2022/07/01 04:00:29;;;;;;;3.38;2.97;;;;;;;;;;4997808;28;20199;-81
2022/07/01 04:02:54;;;;;;;4.50;3.10;;;;;;;;;;4999486;28;20249;-81
2022/07/01 04:05:20;;;;;;;2.72;2.25;;;;;;;;;;5014960;28;20194;-79
2022/07/01 04:07:46;;;;;;;1.75;1.65;;;;;;;;;;4999830;28;20195;-78
2022/07/01 04:10:13;;;;;;;1.70;1.60;;;;;;;;;;5014678;28;20211;-84
2022/07/01 04:12:39;;;;;;;1.90;1.42;;;;;;;;;;5016595;28;20239;-80
2022/07/01 04:15:05;;;;;;;2.67;1.30;;;;;;;;;;5016313;28;20192;-80
2022/07/01 04:17:32;;;;;;;1.92;1.40;;;;;;;;;;4998440;28;20199;-80
2022/07/01 04:19:58;;;;;;;3.28;1.27;;;;;;;;;;5016820;28;20210;-80
2022/07/01 04:22:32;;;;;;;1.50;1.40;;;;;;;;;;4994315;28;20183;-81
2022/07/01 04:24:59;;;;;;;2.58;1.30;;;;;;;;;;4990114;28;20589;-83
2022/07/01 04:27:25;;;;;;;2.58;1.33;;;;;;;;;;4988706;28;20685;-79
2022/07/01 04:29:51;;;;;;;1.17;1.13;;;;;;;;;;5011137;28;20250;-82
2022/07/01 04:32:17;;;;;;;1.98;1.33;;;;;;;;;;4998672;28;20677;-79
2022/07/01 04:34:43;;;;;;;1.85;1.65;;;;;;;;;;4997514;28;20192;-79
2022/07/01 04:37:09;;;;;;;1.95;1.85;;;;;;;;;;5007235;28;20180;-81
2022/07/01 04:39:35;;;;;;;2.00;1.90;;;;;;;;;;4987678;28;20219;-81
2022/07/01 04:42:01;;;;;;;2.13;1.92;;;;;;;;;;5012283;28;20198;-79
2022/07/01 04:44:37;;;;;;;3.17;2.38;;;;;;;;;;4993386;28;20184;-80
2022/07/01 04:47:03;;;;;;;3.22;2.63;;;;;;;;;;4997700;28;20191;-80
2022/07/01 04:49:29;;;;;;;2.80;2.55;;;;;;;;;;5009300;28;20704;-80
2022/07/01 04:51:56;;;;;;;3.58;3.25;;;;;;;;;;4991848;28;20196;-81
2022/07/01 04:54:22;;;;;;;4.57;3.50;;;;;;;;;;4992215;28;20179;-79
2022/07/01 04:56:48;;;;;;;4.53;3.33;;;;;;;;;;4991998;28;20183;-81
2022/07/01 04:59:14;;;;;;;4.63;3.63;;;;;;;;;;5000060;28;20270;-81
2022/07/01 05:01:41;;;;;;;3.65;3.35;;;;;;;;;;5014512;28;20176;-79
2022/07/01 05:04:07;;;;;;;2.78;2.58;;;;;;;;;;5013977;28;20180;-80
2022/07/01 05:06:33;;;;;;;3.00;2.70;;;;;;;;;;4999443;28;20189;-80
2022/07/01 05:09:00;;;;;;;3.92;2.20;;;;;;;;;;5017675;28;20190;-82
2022/07/01 05:11:26;;;;;;;3.47;2.22;;;;;;;;;;5011936;28;20669;-79
2022/07/01 05:13:52;;;;;;;2.10;1.95;;;;;;;;;;4990527;28;20257;-79
2022/07/01 05:16:18;;;;;;;2.53;1.90;;;;;;;;;;4990073;28;20584;-80
2022/07/01 05:24:14;;;;;;;2.08;1.80;;;;;;;;;;5017587;28;20864;-83
2022/07/01 05:26:40;;;;;;;2.13;1.67;;;;;;;;;;5016361;28;20175;-79
2022/07/01 05:29:06;;;;;;;2.15;1.60;;;;;;;;;;4997804;28;20240;-79
2022/07/01 05:31:32;;;;;;;1.80;1.70;;;;;;;;;;5018240;28;20645;-78
2022/07/01 05:33:58;;;;;;;2.78;1.77;;;;;;;;;;4999534;28;20238;-79
2022/07/01 05:36:24;;;;;;;1.52;1.42;;;;;;;;;;5015236;28;20210;-79
2022/07/01 05:38:50;;;;;;;2.80;1.48;;;;;;;;;;5017420;28;20266;-79
2022/07/01 05:41:17;;;;;;;2.83;1.40;;;;;;;;;;5018880;28;20881;-79
2022/07/01 05:43:43;;;;;;;4.05;2.08;;;;;;;;;;5017958;28;20677;-81
2022/07/01 05:46:08;;;;;;;1.58;1.48;;;;;;;;;;5018060;28;20217;-82
2022/07/01 05:48:34;;;;;;;1.70;1.60;;;;;;;;;;5000129;28;20191;-79
2022/07/01 05:51:00;;;;;;;1.58;1.48;;;;;;;;;;5001275;28;20207;-77
2022/07/01 05:53:26;;;;;;;1.10;1.00;;;;;;;;;;5001131;28;20286;-79
2022/07/01 05:55:52;;;;;;;2.30;1.23;;;;;;;;;;5018478;28;20188;-82
2022/07/01 05:58:18;;;;;;;1.50;1.40;;;;;;;;;;5000215;28;20175;-79
2022/07/01 06:00:44;;;;;;;2.35;1.50;;;;;;;;;;5018431;28;20786;-78
2022/07/01 06:03:11;;;;;;;1.35;1.25;;;;;;;;;;5019068;28;20179;-79
2022/07/01 06:05:37;;;;;;;2.20;1.30;;;;;;;;;;5001251;28;20187;-82
2022/07/01 06:08:04;;;;;;;1.67;1.25;;;;;;;;;;5017414;28;20269;-79
2022/07/01 06:10:30;;;;;;;2.20;1.40;;;;;;;;;;5001023;28;20203;-79
2022/07/01 06:12:56;;;;;;;3.97;1.20;;;;;;;;;;5018702;28;20245;-79
2022/07/01 06:15:22;;;;;;;2.67;1.30;;;;;;;;;;5019414;28;20645;-79
2022/07/01 06:17:49;;;;;;;1.20;1.13;;;;;;;;;;5016609;28;20206;-78
2022/07/01 06:20:15;;;;;;;1.15;1.10;;;;;;;;;;4999739;28;20294;-78
2022/07/01 06:22:41;;;;;;;1.30;1.08;;;;;;;;;;4999520;28;20958;-78
2022/07/01 06:25:07;;;;;;;1.40;1.10;;;;;;;;;;5016809;28;20267;-78
2022/07/01 06:27:39;;;;;;;1.83;1.30;;;;;;;;;;5016751;28;20557;-81
2022/07/01 06:30:05;;;;;;;1.58;1.40;;;;;;;;;;4999294;28;20238;-78
2022/07/01 06:32:31;;;;;;;1.58;1.25;;;;;;;;;;4999258;28;20207;-79
2022/07/01 06:34:57;;;;;;;1.30;1.20;;;;;;;;;;4999681;28;20183;-78
2022/07/01 06:37:23;;;;;;;1.40;1.30;;;;;;;;;;5016780;28;20210;-78
2022/07/01 06:39:49;;;;;;;1.45;1.35;;;;;;;;;;5016836;28;20222;-81
2022/07/01 06:42:15;;;;;;;3.53;1.50;;;;;;;;;;5000661;28;20681;-81
2022/07/01 06:44:41;;;;;;;1.70;1.60;;;;;;;;;;4996630;28;20238;-82
2022/07/01 06:47:07;;;;;;;2.80;1.80;;;;;;;;;;4994230;28;20187;-83
2022/07/01 06:49:33;;;;;;;2.08;1.63;;;;;;;;;;4995061;28;20290;-84
2022/07/01 06:51:59;;;;;;;2.40;1.70;;;;;;;;;;4993682;28;20196;-83
2022/07/01 06:54:25;;;;;;;2.28;1.50;;;;;;;;;;5009841;28;20591;-82
2022/07/01 06:56:51;;;;;;;2.10;1.80;;;;;;;;;;4994480;28;20347;-81
2022/07/01 06:59:17;;;;;;;2.03;1.65;;;;;;;;;;4989938;28;20723;-82
2022/07/01 07:01:43;;;;;;;2.55;1.83;;;;;;;;;;4993396;28;20221;-82
2022/07/01 07:04:09;;;;;;;2.92;1.80;;;;;;;;;;5016748;28;20218;-84
2022/07/01 07:06:35;;;;;;;1.83;1.58;;;;;;;;;;4991814;28;20249;-81
2022/07/01 07:09:01;;;;;;;2.33;1.90;;;;;;;;;;4994579;28;20194;-85
2022/07/01 07:11:27;;;;;;;2.22;2.03;;;;;;;;;;5002509;28;20183;-83
2022/07/01 07:13:53;;;;;;;2.28;2.08;;;;;;;;;;5015426;28;20211;-83
2022/07/01 07:16:22;;;;;;;2.03;1.83;;;;;;;;;;4986536;28;20191;-84
2022/07/01 07:18:49;;;;;;;2.30;2.05;;;;;;;;;;4995297;28;20183;-84
2022/07/01 07:21:15;;;;;;;2.33;2.13;;;;;;;;;;4996471;28;20597;-85
2022/07/01 07:23:42;;;;;;;2.88;2.50;;;;;;;;;;5016605;28;20237;-81
2022/07/01 07:26:08;;;;;;;2.38;2.17;;;;;;;;;;5013057;28;20830;-83
2022/07/01 07:28:34;;;;;;;3.65;2.50;;;;;;;;;;4994693;28;20481;-83
2022/07/01 07:31:00;;;;;;;2.47;2.20;;;;;;;;;;4993661;28;20732;-85
2022/07/01 07:33:26;;;;;;;2.47;2.15;;;;;;;;;;4998438;28;20298;-83
2022/07/01 07:35:52;;;;;;;2.40;2.10;;;;;;;;;;5010742;28;20220;-83
2022/07/01 07:38:18;;;;;;;2.20;2.00;;;;;;;;;;4995110;28;20187;-83
2022/07/01 07:40:44;;;;;;;2.30;2.10;;;;;;;;;;4993280;28;20617;-84
2022/07/01 07:43:10;;;;;;;2.20;1.92;;;;;;;;;;5008762;28;20186;-84
2022/07/01 07:45:36;;;;;;;2.40;2.20;;;;;;;;;;4992121;28;20198;-83
2022/07/01 07:48:03;;;;;;;2.47;2.20;;;;;;;;;;4987569;28;20852;-83
2022/07/01 07:50:31;;;;;;;2.70;2.30;;;;;;;;;;4990097;28;20206;-84
2022/07/01 07:52:57;;;;;;;2.60;2.40;;;;;;;;;;4995723;28;20695;-85
2022/07/01 07:55:23;;;;;;;2.33;2.05;;;;;;;;;;5011679;28;20193;-84
2022/07/01 07:57:49;;;;;;;2.75;2.25;;;;;;;;;;4993875;28;20222;-85
2022/07/01 08:00:15;;;;;;;2.40;2.25;;;;;;;;;;4986129;28;20499;-85
2022/07/01 08:02:41;;;;;;;3.90;2.70;;;;;;;;;;4997488;28;20214;-84
2022/07/01 08:05:08;;;;;;;2.50;2.22;;;;;;;;;;4986871;28;20191;-85
2022/07/01 08:07:38;;;;;;;3.45;2.58;;;;;;;;;;4997834;28;20825;-84
2022/07/01 08:10:05;;;;;;;2.28;2.08;;;;;;;;;;4996144;28;20237;-84
2022/07/01 08:12:31;;;;;;;2.70;2.50;;;;;;;;;;5014524;28;20215;-84
2022/07/01 08:14:57;;;;;;;3.33;2.53;;;;;;;;;;4993525;28;20186;-84
2022/07/01 08:17:24;;;;;;;3.42;3.03;;;;;;;;;;4995081;28;20288;-84
2022/07/01 08:19:50;;;;;;;3.15;2.70;;;;;;;;;;4992550;28;20309;-82
2022/07/01 08:22:16;;;;;;;3.25;2.88;;;;;;;;;;4994926;28;20933;-83
2022/07/01 08:24:43;;;;;;;3.20;2.92;;;;;;;;;;5014680;28;20191;-82
2022/07/01 08:27:09;;;;;;;3.60;3.10;;;;;;;;;;5018095;28;20217;-83
2022/07/01 08:29:35;;;;;;;4.57;4.10;;;;;;;;;;5013949;28;20195;-83
2022/07/01 08:32:01;;;;;;;4.65;3.80;;;;;;;;;;5016042;28;20190;-84
2022/07/01 08:34:27;;;;;;;4.53;3.90;;;;;;;;;;4997971;28;20302;-83
2022/07/01 08:36:52;;;;;;;3.63;3.33;;;;;;;;;;4988744;28;20746;-83
2022/07/01 08:39:18;;;;;;;5.28;3.78;;;;;;;;;;4995490;28;20182;-84
2022/07/01 08:41:44;;;;;;;4.25;3.45;;;;;;;;;;5000441;28;20241;-83
2022/07/01 08:44:10;;;;;;;3.15;2.90;;;;;;;;;;5000086;28;20183;-85
2022/07/01 08:46:36;;;;;;;3.10;2.90;;;;;;;;;;4993225;28;20746;-84
2022/07/01 08:49:03;;;;;;;3.38;3.10;;;;;;;;;;5015623;28;20269;-83
2022/07/01 08:51:29;;;;;;;3.78;3.47;;;;;;;;;;4996204;28;20674;-82
2022/07/01 08:53:55;;;;;;;4.00;3.55;;;;;;;;;;4995377;28;20210;-84
2022/07/01 08:59:09;;;;;;;4.53;4.13;;;;;;;;;;5011134;28;20272;-85
2022/07/01 09:01:35;;;;;;;4.68;4.28;;;;;;;;;;4991755;28;20495;-85
2022/07/01 09:04:15;;;;;;;4.95;4.45;;;;;;;;;;4993687;28;20338;-85
2022/07/01 09:06:41;;;;;;;5.68;4.82;;;;;;;;;;4997095;28;20563;-85
2022/07/01 09:09:12;;;;;;;6.13;4.93;;;;;;;;;;4997503;28;20182;-85
2022/07/01 09:11:44;;;;;;;6.03;5.18;;;;;;;;;;4994181;28;20241;-85
2022/07/01 09:14:11;;;;;;;5.95;4.68;;;;;;;;;;5004883;28;20207;-85
2022/07/01 09:16:48;;;;;;;5.60;5.10;;;;;;;;;;4995895;28;20204;-85
2022/07/01 09:19:15;;;;;;;4.20;3.80;;;;;;;;;;4993812;28;20662;-85
2022/07/01 09:21:41;;;;;;;4.22;3.63;;;;;;;;;;4996066;28;20282;-87
2022/07/01 09:24:24;;;;;;;4.10;3.28;;;;;;;;;;4999249;28;20572;-86
2022/07/01 09:26:58;;;;;;;4.03;3.72;;;;;;;;;;5009222;28;20191;-86
2022/07/01 09:29:28;;;;;;;4.05;3.55;;;;;;;;;;4994506;28;20287;-86
2022/07/01 09:31:54;;;;;;;4.50;4.10;;;;;;;;;;4995698;28;20650;-84
2022/07/01 09:34:22;;;;;;;4.43;4.03;;;;;;;;;;5008354;28;20207;-87
2022/07/01 09:36:55;;;;;;;5.95;4.65;;;;;;;;;;5007543;28;20202;-84
2022/07/01 09:39:21;;;;;;;6.32;4.57;;;;;;;;;;4996177;28;20281;-85
2022/07/01 09:41:47;;;;;;;5.32;4.82;;;;;;;;;;4993390;28;20214;-84
2022/07/01 09:44:14;;;;;;;5.57;5.07;;;;;;;;;;4996392;28;20188;-86
2022/07/01 09:46:51;;;;;;;5.20;4.70;;;;;;;;;;4990865;28;20582;-85
2022/07/01 09:49:17;;;;;;;5.30;4.80;;;;;;;;;;4990013;28;20222;-85
2022/07/01 09:51:44;;;;;;;5.40;4.90;;;;;;;;;;4999886;28;20187;-85
2022/07/01 09:54:12;;;;;;;4.78;4.38;;;;;;;;;;4997060;28;20696;-85
2022/07/01 09:56:38;;;;;;;6.05;5.38;;;;;;;;;;4997773;28;20179;-85
2022/07/01 09:59:04;;;;;;;5.82;5.22;;;;;;;;;;5000038;28;20180;-86
2022/07/01 10:01:32;;;;;;;5.90;5.40;;;;;;;;;;4996426;28;20238;-86
2022/07/01 10:03:58;;;;;;;7.60;5.40;;;;;;;;;;5005218;28;20199;-85
2022/07/01 10:06:24;;;;;;;6.25;5.70;;;;;;;;;;4986494;28;20577;-80
2022/07/01 10:09:17;;;;;;;6.47;5.88;;;;;;;;;;4997204;28;20196;-81
2022/07/01 10:11:43;;;;;;;5.85;5.35;;;;;;;;;;4982275;28;20191;-80
2022/07/01 10:14:11;;;;;;;6.07;5.18;;;;;;;;;;4997436;28;20210;-82
2022/07/01 10:16:38;;;;;;;4.40;4.00;;;;;;;;;;4998355;28;20253;-81
2022/07/01 10:19:25;;;;;;;5.43;4.43;;;;;;;;;;4997333;28;20198;-82
2022/07/01 10:21:53;;;;;;;3.70;3.40;;;;;;;;;;5013854;28;20555;-80
2022/07/01 10:24:20;;;;;;;3.80;3.45;;;;;;;;;;5016382;28;20286;-80
2022/07/01 10:26:47;;;;;;;4.00;3.70;;;;;;;;;;5000880;28;20199;-79
2022/07/01 10:29:32;;;;;;;4.38;3.97;;;;;;;;;;4999298;28;20195;-83
2022/07/01 10:32:02;;;;;;;4.85;4.45;;;;;;;;;;5000501;28;20669;-80
2022/07/01 10:34:35;;;;;;;4.70;4.22;;;;;;;;;;5016393;28;20713;-80
2022/07/01 10:37:02;;;;;;;5.43;4.80;;;;;;;;;;4999288;28;20753;-80
2022/07/01 10:39:28;;;;;;;5.13;4.63;;;;;;;;;;5001626;28;20578;-81
2022/07/01 10:41:56;;;;;;;5.47;4.97;;;;;;;;;;5018744;28;20179;-81
2022/07/01 10:44:23;;;;;;;5.35;4.85;;;;;;;;;;5018696;28;20786;-84
2022/07/01 10:46:56;;;;;;;7.88;5.90;;;;;;;;;;4998429;28;21030;-83
2022/07/01 10:49:40;;;;;;;6.13;5.53;;;;;;;;;;5017363;28;20735;-80
2022/07/01 10:52:07;;;;;;;5.95;5.40;;;;;;;;;;4999290;28;20237;-80
2022/07/01 10:54:36;;;;;;;5.75;5.22;;;;;;;;;;4999438;28;20294;-80
2022/07/01 10:57:18;;;;;;;5.30;4.90;;;;;;;;;;5018574;28;20279;-83
2022/07/01 10:59:44;;;;;;;5.07;4.68;;;;;;;;;;5000447;28;20195;-81
2022/07/01 11:02:37;;;;;;;5.30;4.85;;;;;;;;;;4996920;28;20188;-84
2022/07/01 11:05:03;;;;;;;5.00;4.60;;;;;;;;;;4995825;28;20800;-82
2022/07/01 11:07:33;;;;;;;5.00;4.60;;;;;;;;;;5000409;28;21371;-82
2022/07/01 11:10:01;;;;;;;5.30;4.90;;;;;;;;;;5002729;28;20208;-81
2022/07/01 11:12:28;;;;;;;4.90;4.50;;;;;;;;;;5000276;28;20214;-82
2022/07/01 11:14:55;;;;;;;4.57;4.18;;;;;;;;;;5018984;28;20210;-82
2022/07/01 11:17:21;;;;;;;3.97;3.58;;;;;;;;;;5000911;28;20588;-81
2022/07/01 11:19:48;;;;;;;5.03;4.63;;;;;;;;;;4996779;28;20810;-80
2022/07/01 11:22:18;;;;;;;5.10;4.70;;;;;;;;;;5013266;28;20364;-80
2022/07/01 11:24:44;;;;;;;4.65;4.30;;;;;;;;;;4995612;28;20191;-80
2022/07/01 11:27:10;;;;;;;5.03;4.63;;;;;;;;;;5012832;28;20183;-80
2022/07/01 11:29:36;;;;;;;4.13;3.72;;;;;;;;;;4988179;28;20357;-81
2022/07/01 11:32:03;;;;;;;5.80;4.90;;;;;;;;;;4996761;28;20265;-79
2022/07/01 11:34:29;;;;;;;4.93;4.35;;;;;;;;;;4994686;28;20629;-80
2022/07/01 11:39:41;;;;;;;4.85;4.35;;;;;;;;;;5004399;28;20242;-80
2022/07/01 11:42:08;;;;;;;5.50;4.65;;;;;;;;;;5013437;28;20289;-83
2022/07/01 11:44:42;;;;;;;5.15;4.47;;;;;;;;;;4995394;28;20174;-80
2022/07/01 11:47:09;;;;;;;5.28;4.78;;;;;;;;;;4995300;28;20505;-79
2022/07/01 11:49:43;;;;;;;4.70;4.30;;;;;;;;;;4994570;28;20205;-79
2022/07/01 11:52:10;;;;;;;4.93;3.83;;;;;;;;;;4994081;28;20208;-80
2022/07/01 11:54:44;;;;;;;5.50;4.60;;;;;;;;;;5007693;28;20195;-80
2022/07/01 11:57:10;;;;;;;4.88;4.47;;;;;;;;;;4988871;28;20174;-82
2022/07/01 11:59:38;;;;;;;5.03;4.47;;;;;;;;;;5009982;28;20201;-82
2022/07/01 12:02:04;;;;;;;5.40;4.90;;;;;;;;;;4994027;28;20187;-80
2022/07/01 12:04:30;;;;;;;4.88;4.47;;;;;;;;;;4990810;28;21115;-81
2022/07/01 12:06:58;;;;;;;4.93;4.53;;;;;;;;;;5005421;28;20265;-80
2022/07/01 12:09:24;;;;;;;5.07;4.55;;;;;;;;;;4996997;28;20226;-81
2022/07/01 12:11:54;;;;;;;6.07;5.47;;;;;;;;;;4991807;28;20279;-80
2022/07/01 12:14:27;;;;;;;5.88;5.38;;;;;;;;;;4990652;28;20296;-80
2022/07/01 12:16:55;;;;;;;5.80;5.20;;;;;;;;;;5001255;28;20590;-80
2022/07/01 12:21:58;;;;;;;6.25;5.70;;;;;;;;;;6042020;23;20880;-83
2022/07/01 12:24:24;;;;;;;6.60;6.00;;;;;;;;;;5003741;28;20214;-84
2022/07/01 12:26:52;;;;;;;6.25;5.70;;;;;;;;;;4999765;28;20195;-84
2022/07/01 12:29:19;;;;;;;6.95;6.22;;;;;;;;;;5024898;28;20595;-85
2022/07/01 12:31:54;;;;;;;6.63;5.97;;;;;;;;;;5006744;28;20273;-85
2022/07/01 12:34:20;;;;;;;6.82;6.22;;;;;;;;;;4991287;28;20234;-84
2022/07/01 12:36:50;;;;;;;7.30;6.60;;;;;;;;;;4992037;28;20183;-84
2022/07/01 12:39:16;;;;;;;8.48;7.35;;;;;;;;;;4995405;28;20624;-85
2022/07/01 12:41:49;;;;;;;8.30;7.40;;;;;;;;;;4994455;28;20200;-85
2022/07/01 12:44:25;;;;;;;8.00;7.20;;;;;;;;;;4995524;28;20641;-84
2022/07/01 12:46:51;;;;;;;8.75;7.85;;;;;;;;;;5001963;28;20190;-84
2022/07/01 12:49:21;;;;;;;9.10;7.35;;;;;;;;;;5009761;28;20554;-83
2022/07/01 12:51:47;;;;;;;7.63;6.85;;;;;;;;;;4993249;28;20513;-85
2022/07/01 12:54:30;;;;;;;8.52;6.72;;;;;;;;;;4990566;28;20211;-82
2022/07/01 12:56:56;;;;;;;8.40;7.65;;;;;;;;;;4996793;28;20184;-84
2022/07/01 12:59:22;;;;;;;8.75;7.95;;;;;;;;;;4990210;28;20216;-83
2022/07/01 13:01:47;;;;;;;7.93;7.13;;;;;;;;;;4998791;28;20249;-82
2022/07/01 13:04:13;;;;;;;9.10;7.43;;;;;;;;;;5011922;28;20583;-83
2022/07/01 13:06:39;;;;;;;7.57;6.88;;;;;;;;;;4995689;28;20226;-84
2022/07/01 13:09:05;;;;;;;8.15;6.85;;;;;;;;;;4999055;28;20202;-84
2022/07/01 13:11:31;;;;;;;7.65;6.95;;;;;;;;;;4994555;28;20277;-83
2022/07/01 13:13:57;;;;;;;8.57;7.78;;;;;;;;;;5015089;28;20276;-83
2022/07/01 13:16:23;;;;;;;9.18;8.05;;;;;;;;;;4998958;28;20188;-85
2022/07/01 13:18:49;;;;;;;8.27;7.43;;;;;;;;;;4998174;28;20290;-86
2022/07/01 13:21:15;;;;;;;10.20;8.15;;;;;;;;;;4994136;28;20179;-86
2022/07/01 13:23:41;;;;;;;10.00;9.00;;;;;;;;;;5003588;28;20227;-86
2022/07/01 13:26:07;;;;;;;12.48;9.48;;;;;;;;;;5002872;28;20589;-84
2022/07/01 13:28:33;;;;;;;11.32;9.80;;;;;;;;;;4998598;28;20202;-84
2022/07/01 13:30:59;;;;;;;11.77;10.57;;;;;;;;;;4998095;28;20194;-84
2022/07/01 13:33:25;;;;;;;11.35;10.13;;;;;;;;;;4997209;28;20856;-84
2022/07/01 13:35:51;;;;;;;12.85;11.65;;;;;;;;;;4998398;28;20182;-85
2022/07/01 13:38:17;;;;;;;15.07;13.63;;;;;;;;;;4996795;28;20214;-84
2022/07/01 13:40:43;;;;;;;15.10;13.60;;;;;;;;;;4996717;28;20179;-85
2022/07/01 13:43:09;;;;;;;16.42;14.77;;;;;;;;;;4998112;28;20487;-84
2022/07/01 13:45:35;;;;;;;15.23;13.70;;;;;;;;;;4999952;28;20211;-84
2022/07/01 13:48:01;;;;;;;15.07;13.55;;;;;;;;;;4995923;28;20264;-84
2022/07/01 13:50:27;;;;;;;15.75;14.23;;;;;;;;;;4991817;28;20542;-84
2022/07/01 13:52:53;;;;;;;15.48;13.98;;;;;;;;;;4997609;28;20223;-83
2022/07/01 13:55:19;;;;;;;16.25;14.63;;;;;;;;;;4999500;28;20648;-84
2022/07/01 13:57:46;;;;;;;14.75;13.25;;;;;;;;;;4993390;28;20175;-84
2022/07/01 14:00:12;;;;;;;13.20;11.80;;;;;;;;;;4993030;28;20190;-84
2022/07/01 14:02:38;;;;;;;14.93;13.40;;;;;;;;;;4987419;28;20199;-83
2022/07/01 14:05:04;;;;;;;14.35;13.00;;;;;;;;;;5012786;28;20192;-84
2022/07/01 14:07:30;;;;;;;14.00;12.60;;;;;;;;;;4991207;28;20214;-84
2022/07/01 14:09:56;;;;;;;12.65;11.35;;;;;;;;;;5009492;28;20538;-84
2022/07/01 14:12:22;;;;;;;12.75;11.45;;;;;;;;;;5007172;28;20214;-84
2022/07/01 14:14:48;;;;;;;11.68;10.57;;;;;;;;;;4993489;28;20183;-84
2022/07/01 14:17:14;;;;;;;11.07;10.07;;;;;;;;;;4998158;28;20183;-83
2022/07/01 14:19:40;;;;;;;10.05;9.07;;;;;;;;;;4994092;28;20218;-84
2022/07/01 14:22:06;;;;;;;8.38;7.50;;;;;;;;;;5006621;28;20261;-84
2022/07/01 14:24:32;;;;;;;8.23;7.45;;;;;;;;;;5000921;28;20301;-83
2022/07/01 14:26:58;;;;;;;8.45;7.55;;;;;;;;;;4995587;28;20700;-83
2022/07/01 14:29:24;;;;;;;9.25;7.18;;;;;;;;;;4993144;28;20187;-84
2022/07/01 14:31:50;;;;;;;8.32;7.30;;;;;;;;;;5005610;28;20266;-84
2022/07/01 14:34:16;;;;;;;7.78;7.00;;;;;;;;;;4992429;28;20305;-85
2022/07/01 14:36:42;;;;;;;8.75;7.95;;;;;;;;;;4993573;28;20232;-83
2022/07/01 14:39:08;;;;;;;6.20;5.65;;;;;;;;;;4994728;28;20593;-83
2022/07/01 14:41:34;;;;;;;8.30;7.55;;;;;;;;;;5011904;28;20546;-83
2022/07/01 14:44:00;;;;;;;6.38;5.78;;;;;;;;;;4996278;28;20618;-83
2022/07/01 14:46:26;;;;;;;6.82;6.13;;;;;;;;;;4990765;28;20233;-84
2022/07/01 14:48:52;;;;;;;8.45;7.32;;;;;;;;;;4990762;28;20179;-84
2022/07/01 14:51:18;;;;;;;7.32;6.55;;;;;;;;;;5007623;28;20641;-83
2022/07/01 14:53:44;;;;;;;7.50;6.85;;;;;;;;;;4992102;28;20219;-83